createdAt,value
2023-01-30T00:00:18.024Z,23.40
2023-01-30T00:02:47.417Z,20.63
2023-01-30T00:05:16.851Z,21.95
2023-01-30T00:07:46.202Z,20.05
2023-01-30T00:10:17.666Z,21.77
2023-01-30T00:12:47.187Z,20.38
2023-01-30T00:15:16.544Z,23.15
2023-01-30T00:17:45.856Z,22.98
2023-01-30T00:20:15.901Z,21.58
2023-01-30T00:22:59.174Z,21.80
2023-01-30T00:25:31.684Z,20.98
2023-01-30T00:28:02.508Z,21.40
2023-01-30T00:30:32.362Z,22.85
2023-01-30T00:33:01.842Z,23.92
2023-01-30T00:35:31.171Z,21.52
2023-01-30T00:38:00.976Z,21.80
2023-01-30T00:40:32.405Z,22.38
2023-01-30T00:43:19.484Z,21.55
2023-01-30T00:46:06.990Z,21.02
2023-01-30T00:48:36.260Z,22.08
2023-01-30T00:51:05.966Z,28.27
2023-01-30T00:53:35.375Z,28.38
2023-01-30T00:56:06.900Z,23.35
2023-01-30T00:58:36.162Z,24.48
2023-01-30T01:01:05.870Z,23.37
2023-01-30T01:03:35.175Z,23.52
2023-01-30T01:06:04.654Z,26.42
2023-01-30T01:08:34.665Z,25.27
2023-01-30T01:11:05.999Z,23.50
2023-01-30T01:13:35.689Z,24.30
2023-01-30T01:16:05.315Z,24.95
2023-01-30T01:18:34.859Z,26.17
2023-01-30T01:21:04.083Z,29.23
2023-01-30T01:23:33.367Z,28.60
2023-01-30T01:26:05.567Z,24.08
2023-01-30T01:28:36.881Z,23.98
2023-01-30T01:31:10.786Z,24.83
2023-01-30T01:33:40.173Z,26.35
2023-01-30T01:36:10.296Z,25.95
2023-01-30T01:38:39.637Z,24.60
2023-01-30T01:41:10.339Z,25.98
2023-01-30T01:44:00.227Z,26.10
2023-01-30T01:46:32.434Z,27.55
2023-01-30T01:49:04.889Z,24.98
2023-01-30T01:51:37.631Z,24.40
2023-01-30T01:54:11.253Z,26.88
2023-01-30T01:56:48.475Z,25.70
2023-01-30T01:59:23.438Z,25.60
2023-01-30T02:01:55.017Z,27.45
2023-01-30T02:04:38.821Z,25.88
2023-01-30T02:07:08.549Z,26.63
2023-01-30T02:09:38.295Z,25.77
2023-01-30T02:12:09.975Z,28.27
2023-01-30T02:14:39.637Z,26.58
2023-01-30T02:17:08.844Z,25.55
2023-01-30T02:19:49.081Z,25.25
2023-01-30T02:23:02.850Z,26.95
2023-01-30T02:25:59.250Z,27.58
2023-01-30T02:29:02.612Z,25.45
2023-01-30T02:31:41.300Z,26.55
2023-01-30T02:34:28.043Z,26.77
2023-01-30T02:37:16.667Z,27.63
2023-01-30T02:39:57.651Z,30.57
2023-01-30T02:42:36.289Z,25.97
2023-01-30T02:45:13.286Z,26.65
2023-01-30T02:47:49.571Z,27.67
2023-01-30T02:50:22.578Z,27.00
2023-01-30T02:52:52.331Z,27.25
2023-01-30T02:55:24.089Z,30.15
2023-01-30T02:57:54.127Z,27.07
2023-01-30T03:00:35.471Z,26.48
2023-01-30T03:03:26.138Z,25.80
2023-01-30T03:06:20.647Z,27.03
2023-01-30T03:09:06.927Z,29.17
2023-01-30T03:11:45.697Z,28.00
2023-01-30T03:14:21.578Z,28.43
2023-01-30T03:16:53.765Z,29.48
2023-01-30T03:19:25.707Z,29.08
2023-01-30T03:21:55.713Z,26.87
2023-01-30T03:24:25.971Z,27.93
2023-01-30T03:27:00.010Z,27.97
2023-01-30T03:29:29.284Z,29.73
2023-01-30T03:31:58.521Z,30.75
2023-01-30T03:34:29.218Z,29.50
2023-01-30T03:36:58.924Z,27.33
2023-01-30T03:39:29.039Z,28.97
2023-01-30T03:41:58.746Z,32.10
2023-01-30T03:44:28.563Z,26.60
2023-01-30T03:46:58.037Z,29.67
2023-01-30T03:49:28.741Z,25.30
2023-01-30T03:51:59.321Z,24.88
2023-01-30T03:54:28.873Z,30.10
2023-01-30T03:56:58.176Z,27.08
2023-01-30T03:59:27.555Z,31.10
2023-01-30T04:02:04.487Z,26.73
2023-01-30T04:04:36.304Z,26.50
2023-01-30T04:07:07.984Z,27.85
2023-01-30T04:09:37.878Z,28.33
2023-01-30T04:12:07.799Z,28.10
2023-01-30T04:14:42.715Z,27.42
2023-01-30T04:17:32.589Z,27.00
2023-01-30T04:20:32.816Z,27.00
2023-01-30T04:23:02.642Z,28.00
2023-01-30T04:25:32.969Z,30.37
2023-01-30T04:28:02.894Z,29.17
2023-01-30T04:30:37.447Z,29.30
2023-01-30T04:33:40.381Z,29.08
2023-01-30T04:36:13.974Z,29.65
2023-01-30T04:38:44.385Z,25.50
2023-01-30T04:41:13.677Z,27.93
2023-01-30T04:43:44.833Z,28.53
2023-01-30T04:46:20.248Z,26.30
2023-01-30T04:48:49.581Z,26.30
2023-01-30T04:51:20.286Z,27.13
2023-01-30T04:53:50.229Z,25.20
2023-01-30T04:56:19.564Z,27.80
2023-01-30T04:58:51.197Z,26.85
2023-01-30T05:01:24.594Z,30.43
2023-01-30T05:03:55.039Z,26.40
2023-01-30T05:06:25.984Z,27.17
2023-01-30T05:08:56.524Z,27.93
2023-01-30T05:11:27.016Z,27.87
2023-01-30T05:13:56.655Z,30.33
2023-01-30T05:16:26.389Z,26.02
2023-01-30T05:18:55.882Z,25.07
2023-01-30T05:21:29.014Z,22.37
2023-01-30T05:23:59.235Z,23.17
2023-01-30T05:26:28.894Z,22.87
2023-01-30T05:28:59.702Z,22.90
2023-01-30T05:31:29.080Z,22.63
2023-01-30T05:33:58.628Z,23.50
2023-01-30T05:36:29.368Z,20.53
2023-01-30T05:38:58.684Z,18.23
2023-01-30T05:41:28.055Z,18.77
2023-01-30T05:43:57.311Z,17.70
2023-01-30T05:46:26.651Z,21.10
2023-01-30T05:48:55.927Z,19.17
2023-01-30T05:51:26.762Z,18.73
2023-01-30T05:53:57.531Z,16.03
2023-01-30T05:56:27.061Z,18.07
2023-01-30T05:58:58.121Z,19.80
2023-01-30T06:01:28.062Z,21.23
2023-01-30T06:03:57.520Z,19.07
2023-01-30T06:06:27.111Z,22.57
2023-01-30T06:08:58.569Z,14.73
2023-01-30T06:11:28.125Z,18.02
2023-01-30T06:13:57.357Z,15.00
2023-01-30T06:16:26.775Z,13.33
2023-01-30T06:18:56.070Z,16.50
2023-01-30T06:21:25.404Z,13.23
2023-01-30T06:23:54.829Z,12.63
2023-01-30T06:26:25.580Z,12.47
2023-01-30T06:28:55.045Z,12.20
2023-01-30T06:31:24.130Z,13.90
2023-01-30T06:33:53.354Z,12.20
2023-01-30T06:36:22.675Z,11.80
2023-01-30T06:38:51.927Z,12.60
2023-01-30T06:41:21.272Z,11.97
2023-01-30T06:43:51.935Z,11.37
2023-01-30T06:46:21.384Z,10.43
2023-01-30T06:48:50.864Z,10.20
2023-01-30T06:51:20.078Z,10.10
2023-01-30T06:53:51.155Z,10.13
2023-01-30T06:56:21.753Z,9.93
2023-01-30T06:58:52.392Z,10.23
2023-01-30T07:01:21.676Z,9.70
2023-01-30T07:03:50.957Z,10.10
2023-01-30T07:06:20.354Z,9.60
2023-01-30T07:08:49.553Z,9.40
2023-01-30T07:11:18.919Z,9.60
2023-01-30T07:13:48.195Z,8.43
2023-01-30T07:16:19.059Z,8.83
2023-01-30T07:18:48.469Z,8.43
2023-01-30T07:21:17.685Z,8.97
2023-01-30T07:23:48.835Z,8.57
2023-01-30T07:26:18.390Z,9.50
2023-01-30T07:28:47.592Z,8.37
2023-01-30T07:31:18.272Z,9.40
2023-01-30T07:33:47.490Z,8.70
2023-01-30T07:36:16.743Z,8.63
2023-01-30T07:38:45.989Z,8.20
2023-01-30T07:41:15.174Z,8.73
2023-01-30T07:43:44.449Z,7.83
2023-01-30T07:46:13.817Z,8.23
2023-01-30T07:48:46.177Z,8.40
2023-01-30T07:51:15.525Z,7.57
2023-01-30T07:53:44.745Z,7.07
2023-01-30T07:56:18.814Z,8.13
2023-01-30T07:58:48.049Z,7.20
2023-01-30T08:01:18.122Z,7.03
2023-01-30T08:03:49.518Z,7.60
2023-01-30T08:06:19.571Z,7.53
2023-01-30T08:08:48.815Z,7.47
2023-01-30T08:11:18.516Z,6.67
2023-01-30T08:13:48.184Z,7.13
2023-01-30T08:16:17.589Z,7.30
2023-01-30T08:18:48.422Z,6.87
2023-01-30T08:21:19.023Z,7.38
2023-01-30T08:23:48.295Z,7.03
2023-01-30T08:26:17.734Z,7.37
2023-01-30T08:28:47.072Z,6.33
2023-01-30T08:31:17.954Z,6.77
2023-01-30T08:33:49.735Z,6.43
2023-01-30T08:36:19.105Z,6.57
2023-01-30T08:38:48.351Z,6.63
2023-01-30T08:41:17.661Z,6.40
2023-01-30T08:43:46.865Z,6.37
2023-01-30T08:46:17.600Z,5.63
2023-01-30T08:48:50.120Z,6.23
2023-01-30T08:51:19.509Z,5.80
2023-01-30T08:53:48.779Z,6.30
2023-01-30T08:56:18.197Z,5.90
2023-01-30T08:58:49.221Z,6.10
2023-01-30T09:01:18.712Z,6.20
2023-01-30T09:03:49.759Z,5.90
2023-01-30T09:06:19.154Z,6.10
2023-01-30T09:08:48.512Z,5.37
2023-01-30T09:11:17.956Z,5.65
2023-01-30T09:13:48.878Z,5.93
2023-01-30T09:16:19.280Z,5.73
2023-01-30T09:18:49.953Z,5.63
2023-01-30T09:21:19.377Z,6.23
2023-01-30T09:23:48.594Z,5.57
2023-01-30T09:26:18.020Z,6.30
2023-01-30T09:28:47.234Z,6.07
2023-01-30T09:31:16.479Z,5.20
2023-01-30T09:33:45.828Z,5.83
2023-01-30T09:36:16.598Z,5.63
2023-01-30T09:38:45.792Z,5.67
2023-01-30T09:41:45.205Z,5.27
2023-01-30T09:44:38.456Z,5.50
2023-01-30T09:47:12.918Z,5.60
2023-01-30T09:49:51.220Z,5.37
2023-01-30T09:52:29.798Z,5.43
2023-01-30T09:55:04.209Z,5.40
2023-01-30T09:57:33.493Z,5.40
2023-01-30T10:00:08.619Z,5.00
2023-01-30T10:02:51.690Z,5.63
2023-01-30T10:05:21.739Z,5.07
2023-01-30T10:08:10.931Z,5.53
2023-01-30T10:10:57.867Z,5.27
2023-01-30T10:13:48.827Z,5.10
2023-01-30T10:16:23.225Z,5.07
2023-01-30T10:19:26.130Z,5.40
2023-01-30T10:22:12.720Z,5.50
2023-01-30T10:24:57.368Z,4.87
2023-01-30T10:27:30.256Z,5.20
2023-01-30T10:30:03.826Z,4.90
2023-01-30T10:32:36.981Z,4.77
2023-01-30T10:35:09.399Z,5.03
2023-01-30T10:37:43.984Z,4.73
2023-01-30T10:40:24.481Z,5.27
2023-01-30T10:43:03.171Z,4.80
2023-01-30T10:45:40.417Z,5.07
2023-01-30T10:48:43.666Z,5.00
2023-01-30T10:51:24.753Z,4.50
2023-01-30T10:53:58.085Z,5.00
2023-01-30T10:56:38.432Z,4.53
2023-01-30T10:59:22.728Z,4.67
2023-01-30T11:02:01.470Z,4.50
2023-01-30T11:04:37.271Z,4.70
2023-01-30T11:07:07.549Z,4.43
2023-01-30T11:09:41.575Z,4.60
2023-01-30T11:12:13.096Z,4.03
2023-01-30T11:14:58.749Z,4.33
2023-01-30T11:17:34.795Z,4.03
2023-01-30T11:20:11.821Z,3.90
2023-01-30T11:22:48.934Z,3.63
2023-01-30T11:25:21.983Z,4.23
2023-01-30T11:27:57.734Z,4.10
2023-01-30T11:30:31.334Z,3.90
2023-01-30T11:33:12.078Z,4.07
2023-01-30T11:35:53.765Z,3.77
2023-01-30T11:38:25.743Z,3.90
2023-01-30T11:41:05.949Z,4.10
2023-01-30T11:43:39.828Z,3.43
2023-01-30T11:46:11.957Z,3.70
2023-01-30T11:49:02.568Z,3.50
2023-01-30T11:51:38.897Z,3.80
2023-01-30T11:54:14.382Z,3.30
2023-01-30T11:56:50.288Z,4.40
2023-01-30T11:59:27.851Z,3.90
2023-01-30T12:02:07.155Z,3.70
2023-01-30T12:04:39.391Z,3.63
2023-01-30T12:07:18.375Z,3.43
2023-01-30T12:09:50.477Z,3.83
2023-01-30T12:12:30.918Z,3.80
2023-01-30T12:15:16.213Z,3.63
2023-01-30T12:17:52.661Z,3.27
2023-01-30T12:20:44.512Z,3.70
2023-01-30T12:23:18.234Z,3.50
2023-01-30T12:25:59.332Z,3.30
2023-01-30T12:28:37.006Z,3.53
2023-01-30T12:31:12.191Z,3.40
2023-01-30T12:33:41.561Z,2.80
2023-01-30T12:36:18.216Z,3.23
2023-01-30T12:38:58.163Z,3.60
2023-01-30T12:41:42.625Z,3.30
2023-01-30T12:44:43.219Z,3.20
2023-01-30T12:47:33.402Z,3.43
2023-01-30T12:50:25.323Z,6.10
2023-01-30T12:53:22.181Z,8.37
2023-01-30T12:56:05.191Z,12.03
2023-01-30T12:58:39.653Z,19.17
2023-01-30T13:01:25.331Z,17.47
2023-01-30T13:04:03.802Z,15.63
2023-01-30T13:06:48.354Z,13.40
2023-01-30T13:09:31.468Z,14.73
2023-01-30T13:12:09.267Z,12.07
2023-01-30T13:14:45.466Z,20.87
2023-01-30T13:17:33.686Z,19.73
2023-01-30T13:20:17.442Z,18.37
2023-01-30T13:22:54.807Z,15.97
2023-01-30T13:25:34.274Z,24.83
2023-01-30T13:28:11.486Z,20.80
2023-01-30T13:30:42.757Z,19.03
2023-01-30T13:33:15.443Z,17.40
2023-01-30T13:35:49.920Z,19.67
2023-01-30T13:38:23.404Z,17.97
2023-01-30T13:40:56.436Z,15.57
2023-01-30T13:43:30.437Z,15.83
2023-01-30T13:46:03.192Z,14.97
2023-01-30T13:48:47.294Z,15.17
2023-01-30T13:51:33.694Z,14.73
2023-01-30T13:54:10.623Z,15.97
2023-01-30T13:56:43.597Z,15.47
2023-01-30T13:59:22.771Z,14.52
2023-01-30T14:02:21.531Z,14.60
2023-01-30T14:04:52.423Z,14.13
2023-01-30T14:07:30.013Z,14.93
2023-01-30T14:10:20.479Z,15.17
2023-01-30T14:12:52.774Z,13.70
2023-01-30T14:15:31.914Z,13.60
2023-01-30T14:18:05.551Z,12.63
2023-01-30T14:20:36.548Z,12.93
2023-01-30T14:25:52.525Z,16.20
2023-01-30T14:28:55.537Z,14.27
2023-01-30T14:31:55.191Z,12.85
2023-01-30T14:35:14.268Z,13.10
2023-01-30T14:38:13.882Z,12.30
2023-01-30T14:41:10.089Z,11.10
2023-01-30T14:43:52.298Z,10.40
2023-01-30T14:46:54.314Z,10.63
2023-01-30T14:49:33.169Z,34.92
2023-01-30T14:52:04.832Z,16.87
2023-01-30T14:54:42.596Z,54.85
2023-01-30T14:57:24.017Z,23.67
2023-01-30T15:00:14.275Z,23.90
2023-01-30T15:02:52.116Z,20.27
2023-01-30T15:05:27.905Z,18.48
2023-01-30T15:08:04.290Z,16.00
2023-01-30T15:11:01.625Z,16.27
2023-01-30T15:14:07.814Z,14.50
2023-01-30T15:17:05.820Z,12.68
2023-01-30T15:20:07.335Z,12.73
2023-01-30T15:22:48.292Z,11.63
2023-01-30T15:25:38.046Z,10.82
2023-01-30T15:28:18.275Z,10.57
2023-01-30T15:30:57.524Z,9.97
2023-01-30T15:33:31.921Z,8.80
2023-01-30T15:36:02.045Z,9.13
2023-01-30T15:38:32.608Z,8.38
2023-01-30T15:41:04.328Z,8.75
2023-01-30T15:44:01.618Z,8.27
2023-01-30T15:46:40.044Z,7.68
2023-01-30T15:49:31.206Z,7.32
2023-01-30T15:52:03.891Z,8.25
2023-01-30T15:54:33.235Z,7.20
2023-01-30T15:57:02.848Z,7.20
2023-01-30T15:59:35.021Z,7.22
2023-01-30T16:02:08.198Z,7.32
2023-01-30T16:04:39.187Z,19.23
2023-01-30T16:07:18.418Z,16.08
2023-01-30T16:10:07.009Z,23.23
2023-01-30T16:12:41.206Z,31.92
2023-01-30T16:15:27.568Z,17.95
2023-01-30T16:18:05.370Z,19.45
2023-01-30T16:21:00.256Z,19.25
2023-01-30T16:23:35.350Z,19.42
2023-01-30T16:26:06.199Z,19.52
2023-01-30T16:28:35.873Z,21.05
2023-01-30T16:31:08.145Z,19.02
2023-01-30T16:33:37.719Z,18.13
2023-01-30T16:36:33.128Z,19.23
2023-01-30T16:39:03.569Z,17.30
2023-01-30T16:41:35.014Z,17.67
2023-01-30T16:44:21.466Z,18.90
2023-01-30T16:46:59.762Z,16.27
2023-01-30T16:49:42.655Z,15.57
2023-01-30T16:52:21.107Z,14.85
2023-01-30T16:54:54.052Z,14.00
2023-01-30T16:57:37.353Z,15.10
2023-01-30T17:00:21.514Z,13.88
2023-01-30T17:02:53.495Z,12.20
2023-01-30T17:05:24.685Z,13.45
2023-01-30T17:07:57.215Z,12.20
2023-01-30T17:10:53.544Z,12.80
2023-01-30T17:13:34.796Z,12.35
2023-01-30T17:16:32.643Z,11.68
2023-01-30T17:19:02.599Z,11.80
2023-01-30T17:21:35.378Z,10.63
2023-01-30T17:24:07.516Z,11.10
2023-01-30T17:26:40.832Z,10.23
2023-01-30T17:29:23.331Z,15.93
2023-01-30T17:31:59.228Z,18.02
2023-01-30T17:34:28.988Z,11.73
2023-01-30T17:36:58.341Z,10.15
2023-01-30T17:39:29.299Z,12.05
2023-01-30T17:41:58.633Z,16.83
2023-01-30T17:44:28.005Z,10.70
2023-01-30T17:46:57.321Z,9.30
2023-01-30T17:49:27.063Z,19.80
2023-01-30T17:52:00.028Z,15.10
2023-01-30T17:54:31.943Z,19.15
2023-01-30T17:57:03.718Z,26.55
2023-01-30T17:59:33.664Z,26.58
2023-01-30T18:02:03.378Z,14.73
2023-01-30T18:04:33.634Z,12.70
2023-01-30T18:07:06.580Z,13.85
2023-01-30T18:09:38.439Z,17.08
2023-01-30T18:12:08.257Z,10.93
2023-01-30T18:14:38.315Z,10.82
2023-01-30T18:17:08.040Z,9.35
2023-01-30T18:19:37.409Z,9.98
2023-01-30T18:22:07.003Z,12.85
2023-01-30T18:24:37.766Z,24.65
2023-01-30T18:27:07.363Z,12.15
2023-01-30T18:29:36.697Z,30.98
2023-01-30T18:32:06.543Z,21.35
2023-01-30T18:34:36.223Z,6.88
2023-01-30T18:37:05.850Z,9.15
2023-01-30T18:39:36.944Z,9.45
2023-01-30T18:42:08.161Z,11.88
2023-01-30T18:44:37.752Z,11.80
2023-01-30T18:47:07.238Z,8.02
2023-01-30T18:49:36.524Z,7.85
2023-01-30T18:52:06.329Z,6.60
2023-01-30T18:54:37.768Z,8.30
2023-01-30T18:57:07.130Z,7.57
2023-01-30T18:59:36.543Z,9.38
2023-01-30T19:02:05.953Z,7.13
2023-01-30T19:04:35.440Z,5.45
2023-01-30T19:07:04.977Z,6.78
2023-01-30T19:09:34.560Z,8.88
2023-01-30T19:12:23.310Z,7.53
2023-01-30T19:14:53.505Z,5.57
2023-01-30T19:17:23.040Z,5.93
2023-01-30T19:19:52.357Z,7.32
2023-01-30T19:22:22.111Z,4.70
2023-01-30T19:24:51.875Z,4.10
2023-01-30T19:27:23.393Z,4.72
2023-01-30T19:29:52.977Z,4.85
2023-01-30T19:32:22.348Z,6.00
2023-01-30T19:34:51.751Z,4.47
2023-01-30T19:37:21.598Z,9.10
2023-01-30T19:39:51.456Z,3.97
2023-01-30T19:42:23.153Z,5.32
2023-01-30T19:44:53.259Z,6.30
2023-01-30T19:47:23.818Z,3.55
2023-01-30T19:49:54.274Z,3.70
2023-01-30T19:52:24.492Z,4.05
2023-01-30T19:54:54.056Z,4.93
2023-01-30T19:57:24.995Z,3.55
2023-01-30T19:59:56.717Z,3.67
2023-01-30T20:02:26.151Z,3.58
2023-01-30T20:04:55.753Z,5.35
2023-01-30T20:07:25.049Z,6.15
2023-01-30T20:09:54.403Z,3.88
2023-01-30T20:12:25.417Z,3.60
2023-01-30T20:14:55.154Z,3.40
2023-01-30T20:17:24.857Z,3.70
2023-01-30T20:19:54.298Z,4.82
2023-01-30T20:22:23.520Z,5.30
2023-01-30T20:24:52.813Z,3.20
2023-01-30T20:27:22.974Z,3.05
2023-01-30T20:29:53.743Z,2.90
2023-01-30T20:32:23.099Z,3.40
2023-01-30T20:34:52.615Z,4.70
2023-01-30T20:37:22.040Z,7.03
2023-01-30T20:39:51.527Z,2.95
2023-01-30T20:42:20.970Z,3.10
2023-01-30T20:44:50.495Z,2.60
2023-01-30T20:47:21.299Z,2.47
2023-01-30T20:49:51.190Z,5.07
2023-01-30T20:52:21.015Z,2.58
2023-01-30T20:54:50.305Z,2.70
2023-01-30T20:57:19.786Z,2.80
2023-01-30T20:59:49.036Z,5.55
2023-01-30T21:02:18.309Z,4.63
2023-01-30T21:04:49.167Z,3.92
2023-01-30T21:07:18.658Z,6.15
2023-01-30T21:09:47.924Z,3.85
2023-01-30T21:12:17.129Z,4.88
2023-01-30T21:14:46.391Z,3.47
2023-01-30T21:17:15.618Z,3.65
2023-01-30T21:19:45.077Z,2.78
2023-01-30T21:22:15.724Z,2.90
2023-01-30T21:24:45.019Z,3.28
2023-01-30T21:27:14.224Z,2.60
2023-01-30T21:29:43.486Z,2.22
2023-01-30T21:32:12.879Z,2.70
2023-01-30T21:34:42.225Z,4.80
2023-01-30T21:37:28.764Z,2.45
2023-01-30T21:40:17.249Z,2.72
2023-01-30T21:43:04.109Z,2.45
2023-01-30T21:45:33.493Z,2.22
2023-01-30T21:48:02.768Z,2.40
2023-01-30T21:50:32.027Z,2.83
2023-01-30T21:53:01.977Z,2.58
2023-01-30T21:55:32.772Z,2.20
2023-01-30T21:58:02.049Z,2.28
2023-01-30T22:00:31.273Z,2.55
2023-01-30T22:03:00.523Z,2.72
2023-01-30T22:05:36.490Z,2.20
2023-01-30T22:08:06.696Z,2.20
2023-01-30T22:10:37.492Z,2.42
2023-01-30T22:13:06.793Z,2.42
2023-01-30T22:15:36.326Z,3.63
2023-01-30T22:18:05.691Z,2.00
2023-01-30T22:20:34.929Z,2.35
2023-01-30T22:23:04.273Z,2.25
2023-01-30T22:25:38.503Z,2.25
2023-01-30T22:28:10.049Z,2.35
2023-01-30T22:30:39.796Z,2.17
2023-01-30T22:33:09.077Z,1.63
2023-01-30T22:35:38.405Z,1.60
2023-01-30T22:38:07.627Z,1.80
2023-01-30T22:40:38.610Z,1.98
2023-01-30T22:43:07.883Z,2.13
2023-01-30T22:45:37.237Z,2.47
2023-01-30T22:48:06.673Z,2.22
2023-01-30T22:50:36.112Z,1.70
2023-01-30T22:53:05.630Z,1.60
2023-01-30T22:55:36.303Z,1.77
2023-01-30T22:58:07.016Z,1.83
2023-01-30T23:00:36.249Z,2.90
2023-01-30T23:03:05.607Z,2.47
2023-01-30T23:05:34.913Z,1.48
2023-01-30T23:08:04.161Z,1.80
2023-01-30T23:10:33.469Z,3.08
2023-01-30T23:13:08.637Z,1.55
2023-01-30T23:15:42.971Z,1.75
2023-01-30T23:18:29.798Z,1.40
2023-01-30T23:20:59.517Z,1.80
2023-01-30T23:23:28.952Z,1.50
2023-01-30T23:25:58.296Z,1.40
2023-01-30T23:28:27.539Z,1.60
2023-01-30T23:30:58.283Z,1.30
2023-01-30T23:33:27.583Z,1.30
2023-01-30T23:35:56.864Z,1.50
2023-01-30T23:38:26.102Z,1.52
2023-01-30T23:40:55.297Z,1.70
2023-01-30T23:43:24.666Z,1.33
2023-01-30T23:45:56.073Z,1.33
2023-01-30T23:48:27.250Z,1.30
2023-01-30T23:50:56.490Z,1.30
2023-01-30T23:53:25.666Z,1.33
2023-01-30T23:55:55.341Z,1.38
2023-01-30T23:58:24.629Z,1.20
